Terminal Aerodrome Forecast
Issued by NWS

Home | Current Version | Previous Version | Text Only | Print | Product List | Glossary On
Versions: 1 2 3 4 5 6 7 8 9 10 11 12 13 14
972
FTUS44 KLZK 241730
TAFHOT
TAF
KHOT 241730Z 2418/2518 24006KT P6SM SCT035
     FM250000 18006KT P6SM SCT250
     FM250400 VRB02KT P6SM FEW250
     FM251200 24006KT P6SM SCT250=

USA.gov is the U.S. government's official web portal to all federal, state and local government web resources and services.